sensor_id;sensor_type;location;lat;lon;timestamp;P1;durP1;ratioP1;P2;durP2;ratioP2
20486;SDS011;10402;49.012;8.370;2023-11-21T00:00:00;638.93;;;603.53;;
20486;SDS011;10402;49.012;8.370;2023-11-21T00:02:25;631.37;;;596.67;;
20486;SDS011;10402;49.012;8.370;2023-11-21T00:04:52;629.30;;;594.57;;
20486;SDS011;10402;49.012;8.370;2023-11-21T00:07:17;633.23;;;597.70;;
20486;SDS011;10402;49.012;8.370;2023-11-21T00:09:43;641.00;;;605.43;;
20486;SDS011;10402;49.012;8.370;2023-11-21T00:12:08;613.63;;;579.10;;
20486;SDS011;10402;49.012;8.370;2023-11-21T00:14:35;631.90;;;595.50;;
20486;SDS011;10402;49.012;8.370;2023-11-21T00:17:01;617.60;;;582.43;;
20486;SDS011;10402;49.012;8.370;2023-11-21T00:19:27;627.57;;;592.03;;
20486;SDS011;10402;49.012;8.370;2023-11-21T00:21:53;641.50;;;604.70;;
20486;SDS011;10402;49.012;8.370;2023-11-21T00:24:18;626.03;;;590.73;;
20486;SDS011;10402;49.012;8.370;2023-11-21T00:26:44;619.10;;;584.13;;
20486;SDS011;10402;49.012;8.370;2023-11-21T00:29:10;640.57;;;604.03;;
20486;SDS011;10402;49.012;8.370;2023-11-21T00:31:35;645.93;;;608.83;;
20486;SDS011;10402;49.012;8.370;2023-11-21T00:34:04;639.30;;;602.77;;
20486;SDS011;10402;49.012;8.370;2023-11-21T00:36:30;642.30;;;605.93;;
20486;SDS011;10402;49.012;8.370;2023-11-21T00:38:57;650.33;;;613.10;;
20486;SDS011;10402;49.012;8.370;2023-11-21T00:41:23;646.80;;;610.57;;
20486;SDS011;10402;49.012;8.370;2023-11-21T00:43:48;648.20;;;612.00;;
20486;SDS011;10402;49.012;8.370;2023-11-21T00:46:14;647.17;;;610.40;;
20486;SDS011;10402;49.012;8.370;2023-11-21T00:48:39;626.30;;;591.73;;
20486;SDS011;10402;49.012;8.370;2023-11-21T00:51:05;627.80;;;592.33;;
20486;SDS011;10402;49.012;8.370;2023-11-21T00:53:31;636.13;;;600.87;;
20486;SDS011;10402;49.012;8.370;2023-11-21T00:55:57;649.83;;;613.40;;
20486;SDS011;10402;49.012;8.370;2023-11-21T00:58:25;635.30;;;600.23;;
20486;SDS011;10402;49.012;8.370;2023-11-21T01:00:51;620.10;;;585.80;;
20486;SDS011;10402;49.012;8.370;2023-11-21T01:03:16;626.47;;;591.70;;
20486;SDS011;10402;49.012;8.370;2023-11-21T01:05:42;640.17;;;604.03;;
20486;SDS011;10402;49.012;8.370;2023-11-21T01:08:07;650.07;;;613.87;;
20486;SDS011;10402;49.012;8.370;2023-11-21T01:10:33;657.33;;;620.77;;
20486;SDS011;10402;49.012;8.370;2023-11-21T01:13:01;642.37;;;606.23;;
20486;SDS011;10402;49.012;8.370;2023-11-21T01:15:30;636.57;;;600.97;;
20486;SDS011;10402;49.012;8.370;2023-11-21T01:17:56;622.57;;;588.23;;
20486;SDS011;10402;49.012;8.370;2023-11-21T01:20:21;635.10;;;600.57;;
20486;SDS011;10402;49.012;8.370;2023-11-21T01:22:47;651.37;;;615.23;;
20486;SDS011;10402;49.012;8.370;2023-11-21T01:25:14;627.67;;;593.63;;
20486;SDS011;10402;49.012;8.370;2023-11-21T01:27:41;631.63;;;597.07;;
20486;SDS011;10402;49.012;8.370;2023-11-21T01:30:06;626.87;;;592.60;;
20486;SDS011;10402;49.012;8.370;2023-11-21T01:32:34;634.90;;;599.93;;
20486;SDS011;10402;49.012;8.370;2023-11-21T01:34:59;652.33;;;615.90;;
20486;SDS011;10402;49.012;8.370;2023-11-21T01:37:25;641.23;;;605.40;;
20486;SDS011;10402;49.012;8.370;2023-11-21T01:39:53;645.90;;;609.77;;
20486;SDS011;10402;49.012;8.370;2023-11-21T01:42:20;625.13;;;590.57;;
20486;SDS011;10402;49.012;8.370;2023-11-21T01:44:46;640.90;;;604.40;;
20486;SDS011;10402;49.012;8.370;2023-11-21T01:47:11;655.37;;;618.30;;
20486;SDS011;10402;49.012;8.370;2023-11-21T01:49:38;662.83;;;624.77;;
20486;SDS011;10402;49.012;8.370;2023-11-21T01:52:04;648.63;;;611.03;;
20486;SDS011;10402;49.012;8.370;2023-11-21T01:54:30;647.20;;;609.67;;
20486;SDS011;10402;49.012;8.370;2023-11-21T01:56:57;631.00;;;594.80;;
20486;SDS011;10402;49.012;8.370;2023-11-21T01:59:28;622.50;;;587.10;;
20486;SDS011;10402;49.012;8.370;2023-11-21T02:01:59;615.60;;;580.20;;
20486;SDS011;10402;49.012;8.370;2023-11-21T02:04:24;615.83;;;580.27;;
20486;SDS011;10402;49.012;8.370;2023-11-21T02:06:50;589.73;;;555.93;;
20486;SDS011;10402;49.012;8.370;2023-11-21T02:09:16;577.03;;;544.10;;
20486;SDS011;10402;49.012;8.370;2023-11-21T02:11:42;579.40;;;546.57;;
20486;SDS011;10402;49.012;8.370;2023-11-21T02:14:09;568.43;;;536.53;;
20486;SDS011;10402;49.012;8.370;2023-11-21T02:16:34;556.73;;;525.70;;
20486;SDS011;10402;49.012;8.370;2023-11-21T02:19:01;567.20;;;534.57;;
20486;SDS011;10402;49.012;8.370;2023-11-21T02:21:29;578.40;;;545.33;;
20486;SDS011;10402;49.012;8.370;2023-11-21T02:23:55;585.83;;;552.00;;
20486;SDS011;10402;49.012;8.370;2023-11-21T02:26:21;587.13;;;553.60;;
20486;SDS011;10402;49.012;8.370;2023-11-21T02:28:46;562.77;;;530.77;;
20486;SDS011;10402;49.012;8.370;2023-11-21T02:31:12;569.30;;;536.50;;
20486;SDS011;10402;49.012;8.370;2023-11-21T02:33:38;570.77;;;538.30;;
20486;SDS011;10402;49.012;8.370;2023-11-21T02:36:04;595.93;;;561.17;;
20486;SDS011;10402;49.012;8.370;2023-11-21T02:38:30;606.50;;;570.50;;
20486;SDS011;10402;49.012;8.370;2023-11-21T02:40:57;619.23;;;582.20;;
20486;SDS011;10402;49.012;8.370;2023-11-21T02:43:24;617.87;;;581.40;;
20486;SDS011;10402;49.012;8.370;2023-11-21T02:45:49;642.37;;;603.80;;
20486;SDS011;10402;49.012;8.370;2023-11-21T02:48:15;632.33;;;594.03;;
20486;SDS011;10402;49.012;8.370;2023-11-21T02:50:41;651.97;;;612.00;;
20486;SDS011;10402;49.012;8.370;2023-11-21T02:53:08;641.67;;;602.93;;
20486;SDS011;10402;49.012;8.370;2023-11-21T02:55:35;606.50;;;571.03;;
20486;SDS011;10402;49.012;8.370;2023-11-21T02:58:01;638.43;;;600.90;;
20486;SDS011;10402;49.012;8.370;2023-11-21T03:00:28;641.10;;;602.80;;
20486;SDS011;10402;49.012;8.370;2023-11-21T03:02:55;641.10;;;602.57;;
20486;SDS011;10402;49.012;8.370;2023-11-21T03:05:21;633.13;;;595.60;;
20486;SDS011;10402;49.012;8.370;2023-11-21T03:07:46;636.53;;;598.10;;
20486;SDS011;10402;49.012;8.370;2023-11-21T03:10:12;635.07;;;596.27;;
20486;SDS011;10402;49.012;8.370;2023-11-21T03:12:38;649.93;;;610.90;;
20486;SDS011;10402;49.012;8.370;2023-11-21T03:15:07;647.83;;;609.00;;
20486;SDS011;10402;49.012;8.370;2023-11-21T03:17:33;651.50;;;612.90;;
20486;SDS011;10402;49.012;8.370;2023-11-21T03:19:59;649.10;;;610.97;;
20486;SDS011;10402;49.012;8.370;2023-11-21T03:22:25;700.50;;;658.40;;
20486;SDS011;10402;49.012;8.370;2023-11-21T03:24:51;710.37;;;666.70;;
20486;SDS011;10402;49.012;8.370;2023-11-21T03:27:17;697.97;;;655.73;;
20486;SDS011;10402;49.012;8.370;2023-11-21T03:29:43;724.73;;;680.93;;
20486;SDS011;10402;49.012;8.370;2023-11-21T03:32:09;701.53;;;659.90;;
20486;SDS011;10402;49.012;8.370;2023-11-21T03:34:35;704.00;;;662.20;;
20486;SDS011;10402;49.012;8.370;2023-11-21T03:37:17;707.53;;;665.77;;
20486;SDS011;10402;49.012;8.370;2023-11-21T03:39:43;716.63;;;674.43;;
20486;SDS011;10402;49.012;8.370;2023-11-21T03:42:08;727.93;;;684.90;;
20486;SDS011;10402;49.012;8.370;2023-11-21T03:44:34;716.83;;;673.87;;
20486;SDS011;10402;49.012;8.370;2023-11-21T03:46:59;721.40;;;678.47;;
20486;SDS011;10402;49.012;8.370;2023-11-21T03:49:25;711.43;;;668.37;;
20486;SDS011;10402;49.012;8.370;2023-11-21T03:51:50;722.67;;;679.60;;
20486;SDS011;10402;49.012;8.370;2023-11-21T03:54:16;710.60;;;668.50;;
20486;SDS011;10402;49.012;8.370;2023-11-21T03:56:41;727.40;;;683.70;;
20486;SDS011;10402;49.012;8.370;2023-11-21T03:59:07;703.80;;;662.63;;
20486;SDS011;10402;49.012;8.370;2023-11-21T04:01:32;700.80;;;659.43;;
20486;SDS011;10402;49.012;8.370;2023-11-21T04:03:58;693.33;;;651.33;;
20486;SDS011;10402;49.012;8.370;2023-11-21T04:06:24;705.20;;;663.10;;
20486;SDS011;10402;49.012;8.370;2023-11-21T04:08:50;696.13;;;655.07;;
20486;SDS011;10402;49.012;8.370;2023-11-21T04:11:15;712.63;;;670.47;;
20486;SDS011;10402;49.012;8.370;2023-11-21T04:13:41;708.13;;;666.03;;
20486;SDS011;10402;49.012;8.370;2023-11-21T04:16:07;703.07;;;661.13;;
20486;SDS011;10402;49.012;8.370;2023-11-21T04:18:33;703.00;;;660.83;;
20486;SDS011;10402;49.012;8.370;2023-11-21T04:21:03;686.03;;;645.77;;
20486;SDS011;10402;49.012;8.370;2023-11-21T04:23:32;689.23;;;648.83;;
20486;SDS011;10402;49.012;8.370;2023-11-21T04:25:58;677.53;;;638.00;;
20486;SDS011;10402;49.012;8.370;2023-11-21T04:28:23;702.83;;;661.20;;
20486;SDS011;10402;49.012;8.370;2023-11-21T04:30:49;703.50;;;661.30;;
20486;SDS011;10402;49.012;8.370;2023-11-21T04:33:15;715.73;;;673.03;;
20486;SDS011;10402;49.012;8.370;2023-11-21T04:35:41;718.47;;;674.77;;
20486;SDS011;10402;49.012;8.370;2023-11-21T04:38:07;707.17;;;665.57;;
20486;SDS011;10402;49.012;8.370;2023-11-21T04:40:32;712.20;;;669.93;;
20486;SDS011;10402;49.012;8.370;2023-11-21T04:42:58;722.47;;;679.33;;
20486;SDS011;10402;49.012;8.370;2023-11-21T04:45:23;717.23;;;675.43;;
20486;SDS011;10402;49.012;8.370;2023-11-21T04:47:49;711.10;;;669.53;;
20486;SDS011;10402;49.012;8.370;2023-11-21T04:50:15;721.93;;;679.90;;
20486;SDS011;10402;49.012;8.370;2023-11-21T04:52:40;702.00;;;660.70;;
20486;SDS011;10402;49.012;8.370;2023-11-21T04:55:06;704.23;;;664.23;;
20486;SDS011;10402;49.012;8.370;2023-11-21T04:57:35;710.63;;;669.67;;
20486;SDS011;10402;49.012;8.370;2023-11-21T05:00:01;714.47;;;672.67;;
20486;SDS011;10402;49.012;8.370;2023-11-21T05:02:30;712.10;;;671.70;;
20486;SDS011;10402;49.012;8.370;2023-11-21T05:04:56;705.17;;;664.83;;
20486;SDS011;10402;49.012;8.370;2023-11-21T05:07:22;703.60;;;663.53;;
20486;SDS011;10402;49.012;8.370;2023-11-21T05:09:47;694.20;;;654.63;;
20486;SDS011;10402;49.012;8.370;2023-11-21T05:12:13;685.20;;;646.50;;
20486;SDS011;10402;49.012;8.370;2023-11-21T05:14:39;696.43;;;656.43;;
20486;SDS011;10402;49.012;8.370;2023-11-21T05:17:05;698.60;;;658.50;;
20486;SDS011;10402;49.012;8.370;2023-11-21T05:19:30;685.37;;;646.80;;
20486;SDS011;10402;49.012;8.370;2023-11-21T05:21:57;673.63;;;636.27;;
20486;SDS011;10402;49.012;8.370;2023-11-21T05:24:25;675.37;;;637.30;;
20486;SDS011;10402;49.012;8.370;2023-11-21T05:26:51;675.33;;;637.03;;
20486;SDS011;10402;49.012;8.370;2023-11-21T05:29:16;679.57;;;641.60;;
20486;SDS011;10402;49.012;8.370;2023-11-21T05:31:42;673.17;;;635.83;;
20486;SDS011;10402;49.012;8.370;2023-11-21T05:34:07;668.73;;;631.23;;
20486;SDS011;10402;49.012;8.370;2023-11-21T05:36:33;658.10;;;621.47;;
20486;SDS011;10402;49.012;8.370;2023-11-21T05:38:58;651.83;;;615.90;;
20486;SDS011;10402;49.012;8.370;2023-11-21T05:41:24;643.30;;;607.50;;
20486;SDS011;10402;49.012;8.370;2023-11-21T05:43:50;648.07;;;611.60;;
20486;SDS011;10402;49.012;8.370;2023-11-21T05:46:16;640.10;;;604.57;;
20486;SDS011;10402;49.012;8.370;2023-11-21T05:48:41;638.27;;;602.80;;
20486;SDS011;10402;49.012;8.370;2023-11-21T05:51:07;625.37;;;590.83;;
20486;SDS011;10402;49.012;8.370;2023-11-21T05:53:37;610.67;;;576.60;;
20486;SDS011;10402;49.012;8.370;2023-11-21T05:56:03;619.43;;;584.37;;
20486;SDS011;10402;49.012;8.370;2023-11-21T05:58:29;629.03;;;594.17;;
20486;SDS011;10402;49.012;8.370;2023-11-21T06:00:54;600.47;;;567.53;;
20486;SDS011;10402;49.012;8.370;2023-11-21T06:03:20;603.63;;;570.13;;
20486;SDS011;10402;49.012;8.370;2023-11-21T06:05:45;610.30;;;576.37;;
20486;SDS011;10402;49.012;8.370;2023-11-21T06:08:11;600.67;;;567.57;;
20486;SDS011;10402;49.012;8.370;2023-11-21T06:10:36;595.00;;;562.07;;
20486;SDS011;10402;49.012;8.370;2023-11-21T06:13:02;576.67;;;544.87;;
20486;SDS011;10402;49.012;8.370;2023-11-21T06:15:28;569.40;;;538.40;;
20486;SDS011;10402;49.012;8.370;2023-11-21T06:17:54;566.70;;;536.00;;
20486;SDS011;10402;49.012;8.370;2023-11-21T06:20:20;560.77;;;530.90;;
20486;SDS011;10402;49.012;8.370;2023-11-21T06:22:48;556.77;;;527.33;;
20486;SDS011;10402;49.012;8.370;2023-11-21T06:25:15;551.23;;;520.73;;
20486;SDS011;10402;49.012;8.370;2023-11-21T06:27:44;540.10;;;511.43;;
20486;SDS011;10402;49.012;8.370;2023-11-21T06:30:11;543.70;;;514.87;;
20486;SDS011;10402;49.012;8.370;2023-11-21T06:32:38;549.00;;;519.73;;
20486;SDS011;10402;49.012;8.370;2023-11-21T06:35:04;536.03;;;507.40;;
20486;SDS011;10402;49.012;8.370;2023-11-21T06:37:31;534.67;;;506.57;;
20486;SDS011;10402;49.012;8.370;2023-11-21T06:39:57;530.13;;;502.20;;
20486;SDS011;10402;49.012;8.370;2023-11-21T06:42:25;506.73;;;480.57;;
20486;SDS011;10402;49.012;8.370;2023-11-21T06:44:51;516.13;;;489.67;;
20486;SDS011;10402;49.012;8.370;2023-11-21T06:47:18;521.10;;;494.10;;
20486;SDS011;10402;49.012;8.370;2023-11-21T06:49:45;518.80;;;492.43;;
20486;SDS011;10402;49.012;8.370;2023-11-21T06:52:13;514.63;;;488.17;;
20486;SDS011;10402;49.012;8.370;2023-11-21T06:54:39;523.80;;;496.73;;
20486;SDS011;10402;49.012;8.370;2023-11-21T06:57:04;516.23;;;489.43;;
20486;SDS011;10402;49.012;8.370;2023-11-21T06:59:30;516.53;;;489.47;;
20486;SDS011;10402;49.012;8.370;2023-11-21T07:01:55;498.37;;;472.40;;
20486;SDS011;10402;49.012;8.370;2023-11-21T07:04:21;510.50;;;483.47;;
20486;SDS011;10402;49.012;8.370;2023-11-21T07:06:47;515.37;;;488.43;;
20486;SDS011;10402;49.012;8.370;2023-11-21T07:09:12;512.43;;;485.67;;
20486;SDS011;10402;49.012;8.370;2023-11-21T07:11:38;497.20;;;471.47;;
20486;SDS011;10402;49.012;8.370;2023-11-21T07:14:04;509.43;;;482.93;;
20486;SDS011;10402;49.012;8.370;2023-11-21T07:16:35;507.30;;;480.53;;
20486;SDS011;10402;49.012;8.370;2023-11-21T07:19:04;507.97;;;481.53;;
20486;SDS011;10402;49.012;8.370;2023-11-21T07:21:31;500.97;;;475.50;;
20486;SDS011;10402;49.012;8.370;2023-11-21T07:24:00;500.23;;;474.77;;
20486;SDS011;10402;49.012;8.370;2023-11-21T07:26:27;486.37;;;461.67;;
20486;SDS011;10402;49.012;8.370;2023-11-21T07:28:53;510.70;;;484.33;;
20486;SDS011;10402;49.012;8.370;2023-11-21T07:31:19;489.40;;;464.73;;
20486;SDS011;10402;49.012;8.370;2023-11-21T07:33:48;488.93;;;463.93;;
20486;SDS011;10402;49.012;8.370;2023-11-21T07:36:14;500.57;;;474.83;;
20486;SDS011;10402;49.012;8.370;2023-11-21T07:38:40;490.07;;;465.43;;
20486;SDS011;10402;49.012;8.370;2023-11-21T07:41:07;491.60;;;466.73;;
20486;SDS011;10402;49.012;8.370;2023-11-21T07:43:35;494.67;;;469.83;;
20486;SDS011;10402;49.012;8.370;2023-11-21T07:46:01;474.80;;;451.13;;
20486;SDS011;10402;49.012;8.370;2023-11-21T07:48:28;491.83;;;467.10;;
20486;SDS011;10402;49.012;8.370;2023-11-21T07:50:54;480.10;;;456.03;;
20486;SDS011;10402;49.012;8.370;2023-11-21T07:53:20;492.67;;;467.77;;
20486;SDS011;10402;49.012;8.370;2023-11-21T07:55:47;488.60;;;464.57;;
20486;SDS011;10402;49.012;8.370;2023-11-21T07:58:12;495.60;;;470.80;;
20486;SDS011;10402;49.012;8.370;2023-11-21T08:00:38;474.77;;;451.23;;
20486;SDS011;10402;49.012;8.370;2023-11-21T08:03:04;492.33;;;467.87;;
20486;SDS011;10402;49.012;8.370;2023-11-21T08:05:30;482.63;;;458.47;;
20486;SDS011;10402;49.012;8.370;2023-11-21T08:07:56;480.50;;;457.03;;
20486;SDS011;10402;49.012;8.370;2023-11-21T08:10:22;479.60;;;456.07;;
20486;SDS011;10402;49.012;8.370;2023-11-21T08:12:47;478.00;;;454.47;;
20486;SDS011;10402;49.012;8.370;2023-11-21T08:15:15;479.93;;;456.77;;
20486;SDS011;10402;49.012;8.370;2023-11-21T08:17:41;464.17;;;441.97;;
20486;SDS011;10402;49.012;8.370;2023-11-21T08:20:06;452.93;;;431.20;;
20486;SDS011;10402;49.012;8.370;2023-11-21T08:22:33;442.30;;;421.13;;
20486;SDS011;10402;49.012;8.370;2023-11-21T08:24:59;448.50;;;426.47;;
20486;SDS011;10402;49.012;8.370;2023-11-21T08:27:25;445.13;;;423.13;;
20486;SDS011;10402;49.012;8.370;2023-11-21T08:29:50;441.03;;;419.47;;
20486;SDS011;10402;49.012;8.370;2023-11-21T08:32:17;439.13;;;417.47;;
20486;SDS011;10402;49.012;8.370;2023-11-21T08:34:43;426.60;;;405.40;;
20486;SDS011;10402;49.012;8.370;2023-11-21T08:37:09;424.03;;;403.23;;
20486;SDS011;10402;49.012;8.370;2023-11-21T08:39:36;434.63;;;413.23;;
20486;SDS011;10402;49.012;8.370;2023-11-21T08:42:02;429.37;;;408.27;;
20486;SDS011;10402;49.012;8.370;2023-11-21T08:44:28;448.57;;;426.23;;
20486;SDS011;10402;49.012;8.370;2023-11-21T08:46:55;430.90;;;409.73;;
20486;SDS011;10402;49.012;8.370;2023-11-21T08:49:20;443.70;;;421.50;;
20486;SDS011;10402;49.012;8.370;2023-11-21T08:51:46;447.70;;;425.47;;
20486;SDS011;10402;49.012;8.370;2023-11-21T08:54:12;437.67;;;416.27;;
20486;SDS011;10402;49.012;8.370;2023-11-21T08:56:37;446.07;;;423.80;;
20486;SDS011;10402;49.012;8.370;2023-11-21T08:59:03;442.73;;;420.83;;
20486;SDS011;10402;49.012;8.370;2023-11-21T09:01:29;459.27;;;436.67;;
20486;SDS011;10402;49.012;8.370;2023-11-21T09:03:57;462.00;;;439.80;;
20486;SDS011;10402;49.012;8.370;2023-11-21T09:06:23;459.23;;;436.47;;
20486;SDS011;10402;49.012;8.370;2023-11-21T09:08:49;457.70;;;434.97;;
20486;SDS011;10402;49.012;8.370;2023-11-21T09:11:15;450.93;;;428.47;;
20486;SDS011;10402;49.012;8.370;2023-11-21T09:13:40;432.70;;;410.97;;
20486;SDS011;10402;49.012;8.370;2023-11-21T09:16:06;434.80;;;413.60;;
20486;SDS011;10402;49.012;8.370;2023-11-21T09:18:32;421.60;;;400.97;;
20486;SDS011;10402;49.012;8.370;2023-11-21T09:20:57;404.57;;;384.97;;
20486;SDS011;10402;49.012;8.370;2023-11-21T09:23:23;399.67;;;380.80;;
20486;SDS011;10402;49.012;8.370;2023-11-21T09:25:49;394.40;;;376.00;;
20486;SDS011;10402;49.012;8.370;2023-11-21T09:28:16;402.10;;;383.10;;
20486;SDS011;10402;49.012;8.370;2023-11-21T09:30:42;421.90;;;401.67;;
20486;SDS011;10402;49.012;8.370;2023-11-21T09:33:08;410.47;;;391.13;;
20486;SDS011;10402;49.012;8.370;2023-11-21T09:35:36;420.47;;;400.90;;
20486;SDS011;10402;49.012;8.370;2023-11-21T09:38:03;427.33;;;407.20;;
20486;SDS011;10402;49.012;8.370;2023-11-21T09:40:30;434.33;;;413.53;;
20486;SDS011;10402;49.012;8.370;2023-11-21T09:42:57;400.93;;;381.93;;
20486;SDS011;10402;49.012;8.370;2023-11-21T09:45:27;424.27;;;403.93;;
20486;SDS011;10402;49.012;8.370;2023-11-21T09:47:54;442.20;;;420.63;;
20486;SDS011;10402;49.012;8.370;2023-11-21T09:50:20;407.67;;;388.13;;
20486;SDS011;10402;49.012;8.370;2023-11-21T09:55:27;423.07;;;402.70;;
20486;SDS011;10402;49.012;8.370;2023-11-21T09:58:00;436.90;;;415.83;;
20486;SDS011;10402;49.012;8.370;2023-11-21T10:00:27;437.27;;;415.83;;
20486;SDS011;10402;49.012;8.370;2023-11-21T10:02:54;447.37;;;425.40;;
20486;SDS011;10402;49.012;8.370;2023-11-21T10:05:22;419.07;;;398.87;;
20486;SDS011;10402;49.012;8.370;2023-11-21T10:07:49;448.00;;;426.37;;
20486;SDS011;10402;49.012;8.370;2023-11-21T10:10:15;427.30;;;406.67;;
20486;SDS011;10402;49.012;8.370;2023-11-21T10:12:44;445.07;;;423.60;;
20486;SDS011;10402;49.012;8.370;2023-11-21T10:15:18;447.47;;;425.60;;
20486;SDS011;10402;49.012;8.370;2023-11-21T10:17:47;418.53;;;398.73;;
20486;SDS011;10402;49.012;8.370;2023-11-21T10:20:14;438.10;;;417.77;;
20486;SDS011;10402;49.012;8.370;2023-11-21T10:22:41;449.03;;;428.03;;
20486;SDS011;10402;49.012;8.370;2023-11-21T10:25:10;448.83;;;427.90;;
20486;SDS011;10402;49.012;8.370;2023-11-21T10:27:36;454.40;;;433.33;;
20486;SDS011;10402;49.012;8.370;2023-11-21T10:30:04;424.93;;;405.67;;
20486;SDS011;10402;49.012;8.370;2023-11-21T10:32:30;453.93;;;432.90;;
20486;SDS011;10402;49.012;8.370;2023-11-21T10:34:59;480.67;;;458.23;;
20486;SDS011;10402;49.012;8.370;2023-11-21T10:37:34;484.67;;;461.97;;
20486;SDS011;10402;49.012;8.370;2023-11-21T10:40:00;495.00;;;471.93;;
20486;SDS011;10402;49.012;8.370;2023-11-21T10:42:25;495.77;;;473.00;;
20486;SDS011;10402;49.012;8.370;2023-11-21T10:44:52;492.67;;;470.13;;
20486;SDS011;10402;49.012;8.370;2023-11-21T10:47:18;484.83;;;462.73;;
20486;SDS011;10402;49.012;8.370;2023-11-21T10:49:44;497.43;;;474.50;;
20486;SDS011;10402;49.012;8.370;2023-11-21T10:52:13;496.90;;;473.83;;
20486;SDS011;10402;49.012;8.370;2023-11-21T10:54:42;482.10;;;460.00;;
20486;SDS011;10402;49.012;8.370;2023-11-21T10:57:08;490.93;;;468.53;;
20486;SDS011;10402;49.012;8.370;2023-11-21T10:59:35;518.67;;;494.37;;
20486;SDS011;10402;49.012;8.370;2023-11-21T11:02:01;486.43;;;464.43;;
20486;SDS011;10402;49.012;8.370;2023-11-21T11:04:40;484.03;;;462.37;;
20486;SDS011;10402;49.012;8.370;2023-11-21T11:07:06;493.43;;;471.13;;
20486;SDS011;10402;49.012;8.370;2023-11-21T11:09:37;483.20;;;461.53;;
20486;SDS011;10402;49.012;8.370;2023-11-21T11:12:02;480.63;;;458.70;;
20486;SDS011;10402;49.012;8.370;2023-11-21T11:14:31;491.03;;;468.67;;
20486;SDS011;10402;49.012;8.370;2023-11-21T11:16:57;474.20;;;453.17;;
20486;SDS011;10402;49.012;8.370;2023-11-21T11:19:24;462.70;;;442.27;;
20486;SDS011;10402;49.012;8.370;2023-11-21T11:24:58;455.23;;;434.67;;
20486;SDS011;10402;49.012;8.370;2023-11-21T11:30:37;440.80;;;420.87;;
20486;SDS011;10402;49.012;8.370;2023-11-21T11:36:00;451.63;;;431.40;;
20486;SDS011;10402;49.012;8.370;2023-11-21T11:38:33;473.10;;;451.77;;
20486;SDS011;10402;49.012;8.370;2023-11-21T11:41:04;468.50;;;447.43;;
20486;SDS011;10402;49.012;8.370;2023-11-21T11:43:30;459.27;;;438.70;;
20486;SDS011;10402;49.012;8.370;2023-11-21T11:46:09;474.13;;;452.57;;
20486;SDS011;10402;49.012;8.370;2023-11-21T11:48:38;470.70;;;449.07;;
20486;SDS011;10402;49.012;8.370;2023-11-21T11:51:10;466.20;;;445.43;;
20486;SDS011;10402;49.012;8.370;2023-11-21T11:53:39;463.80;;;443.00;;
20486;SDS011;10402;49.012;8.370;2023-11-21T11:56:21;474.23;;;452.60;;
20486;SDS011;10402;49.012;8.370;2023-11-21T11:58:48;455.70;;;435.40;;
20486;SDS011;10402;49.012;8.370;2023-11-21T12:01:16;459.13;;;438.60;;
20486;SDS011;10402;49.012;8.370;2023-11-21T12:04:21;455.57;;;435.33;;
20486;SDS011;10402;49.012;8.370;2023-11-21T12:06:42;444.53;;;424.87;;
20486;SDS011;10402;49.012;8.370;2023-11-21T12:09:12;466.27;;;445.43;;
20486;SDS011;10402;49.012;8.370;2023-11-21T12:11:49;476.37;;;454.87;;
20486;SDS011;10402;49.012;8.370;2023-11-21T12:14:15;459.17;;;438.50;;
20486;SDS011;10402;49.012;8.370;2023-11-21T12:16:44;444.40;;;424.40;;
20486;SDS011;10402;49.012;8.370;2023-11-21T12:19:11;439.47;;;419.83;;
20486;SDS011;10402;49.012;8.370;2023-11-21T12:21:37;448.63;;;428.57;;
20486;SDS011;10402;49.012;8.370;2023-11-21T12:24:04;450.60;;;430.27;;
20486;SDS011;10402;49.012;8.370;2023-11-21T12:26:33;440.60;;;420.30;;
20486;SDS011;10402;49.012;8.370;2023-11-21T12:28:59;422.73;;;403.37;;
20486;SDS011;10402;49.012;8.370;2023-11-21T12:31:26;455.23;;;434.07;;
20486;SDS011;10402;49.012;8.370;2023-11-21T12:33:53;454.67;;;433.17;;
20486;SDS011;10402;49.012;8.370;2023-11-21T12:36:19;453.23;;;431.70;;
20486;SDS011;10402;49.012;8.370;2023-11-21T12:38:45;446.53;;;425.10;;
20486;SDS011;10402;49.012;8.370;2023-11-21T12:41:10;458.33;;;436.10;;
20486;SDS011;10402;49.012;8.370;2023-11-21T12:43:36;435.47;;;415.00;;
20486;SDS011;10402;49.012;8.370;2023-11-21T12:46:09;458.90;;;437.07;;
20486;SDS011;10402;49.012;8.370;2023-11-21T12:48:42;445.37;;;424.50;;
20486;SDS011;10402;49.012;8.370;2023-11-21T12:51:09;455.23;;;433.90;;
20486;SDS011;10402;49.012;8.370;2023-11-21T12:53:36;457.03;;;435.43;;
20486;SDS011;10402;49.012;8.370;2023-11-21T12:56:06;440.43;;;419.90;;
20486;SDS011;10402;49.012;8.370;2023-11-21T12:58:36;431.07;;;411.40;;
20486;SDS011;10402;49.012;8.370;2023-11-21T13:01:09;429.27;;;409.67;;
20486;SDS011;10402;49.012;8.370;2023-11-21T13:03:39;431.07;;;411.30;;
20486;SDS011;10402;49.012;8.370;2023-11-21T13:06:05;452.23;;;431.23;;
20486;SDS011;10402;49.012;8.370;2023-11-21T13:08:32;467.83;;;445.80;;
20486;SDS011;10402;49.012;8.370;2023-11-21T13:10:59;483.77;;;461.00;;
20486;SDS011;10402;49.012;8.370;2023-11-21T13:13:25;480.97;;;458.83;;
20486;SDS011;10402;49.012;8.370;2023-11-21T13:15:55;473.67;;;451.67;;
20486;SDS011;10402;49.012;8.370;2023-11-21T13:18:30;471.90;;;449.97;;
20486;SDS011;10402;49.012;8.370;2023-11-21T13:20:57;469.80;;;447.80;;
20486;SDS011;10402;49.012;8.370;2023-11-21T13:23:23;482.23;;;459.50;;
20486;SDS011;10402;49.012;8.370;2023-11-21T13:25:50;479.37;;;457.27;;
20486;SDS011;10402;49.012;8.370;2023-11-21T13:28:17;480.33;;;457.87;;
20486;SDS011;10402;49.012;8.370;2023-11-21T13:30:47;473.20;;;451.17;;
20486;SDS011;10402;49.012;8.370;2023-11-21T13:33:13;476.83;;;454.33;;
20486;SDS011;10402;49.012;8.370;2023-11-21T13:35:46;488.17;;;465.37;;
20486;SDS011;10402;49.012;8.370;2023-11-21T13:38:17;493.87;;;470.50;;
20486;SDS011;10402;49.012;8.370;2023-11-21T13:40:49;511.27;;;486.33;;
20486;SDS011;10402;49.012;8.370;2023-11-21T13:43:18;526.37;;;499.97;;
20486;SDS011;10402;49.012;8.370;2023-11-21T13:45:47;508.53;;;483.07;;
20486;SDS011;10402;49.012;8.370;2023-11-21T13:48:24;535.27;;;507.97;;
20486;SDS011;10402;49.012;8.370;2023-11-21T13:50:56;518.60;;;492.00;;
20486;SDS011;10402;49.012;8.370;2023-11-21T13:53:35;544.77;;;516.93;;
20486;SDS011;10402;49.012;8.370;2023-11-21T13:56:02;541.93;;;514.00;;
20486;SDS011;10402;49.012;8.370;2023-11-21T13:58:28;522.50;;;496.33;;
20486;SDS011;10402;49.012;8.370;2023-11-21T14:01:12;493.43;;;469.13;;
20486;SDS011;10402;49.012;8.370;2023-11-21T14:04:03;486.93;;;463.63;;
20486;SDS011;10402;49.012;8.370;2023-11-21T14:06:42;507.10;;;482.50;;